createdAt,value
2016-04-11T00:00:19.677Z,7.58
2016-04-11T00:01:19.351Z,7.57
2016-04-11T00:02:19.479Z,7.55
2016-04-11T00:03:19.482Z,7.53
2016-04-11T00:04:19.500Z,7.57
2016-04-11T00:05:19.503Z,7.61
2016-04-11T00:06:19.505Z,7.52
2016-04-11T00:07:19.478Z,7.55
2016-04-11T00:08:19.480Z,7.6
2016-04-11T00:09:19.483Z,7.55
2016-04-11T00:10:19.501Z,7.57
2016-04-11T00:11:19.723Z,7.58
2016-04-11T00:12:19.491Z,7.52
2016-04-11T00:13:19.961Z,7.49
2016-04-11T00:14:19.480Z,7.61
2016-04-11T00:15:19.500Z,7.58
2016-04-11T00:16:19.487Z,7.48
2016-04-11T00:17:19.489Z,7.58
2016-04-11T00:18:19.492Z,7.46
2016-04-11T00:19:19.495Z,7.52
2016-04-11T00:20:19.498Z,7.5
2016-04-11T00:21:18.953Z,7.5
2016-04-11T00:22:33.612Z,7.49
2016-04-11T00:23:19.506Z,7.5
2016-04-11T00:24:19.508Z,7.57
2016-04-11T00:25:19.495Z,7.53
2016-04-11T00:26:19.544Z,7.48
2016-04-11T00:27:19.750Z,7.53
2016-04-11T00:28:19.347Z,7.48
2016-04-11T00:29:19.538Z,7.49
2016-04-11T00:30:19.540Z,7.58
2016-04-11T00:31:19.496Z,7.55
2016-04-11T00:32:19.514Z,7.5
2016-04-11T00:33:19.542Z,7.58
2016-04-11T00:34:19.348Z,7.57
2016-04-11T00:35:19.759Z,7.57
2016-04-11T00:36:19.733Z,7.57
2016-04-11T00:37:19.502Z,7.52
2016-04-11T00:38:19.489Z,7.58
2016-04-11T00:39:19.711Z,7.52
2016-04-11T00:40:19.541Z,7.52
2016-04-11T00:41:19.497Z,7.58
2016-04-11T00:42:19.656Z,7.55
2016-04-11T00:43:19.518Z,7.5
2016-04-11T00:44:19.693Z,7.58
2016-04-11T00:45:19.696Z,7.57
2016-04-11T00:46:19.698Z,7.6
2016-04-11T00:47:19.545Z,7.58
2016-04-11T00:48:19.501Z,7.61
2016-04-11T00:49:19.519Z,7.57
2016-04-11T00:50:19.521Z,7.61
2016-04-11T00:51:19.509Z,7.6
2016-04-11T00:52:19.512Z,7.61
2016-04-11T00:53:19.515Z,7.6
2016-04-11T00:55:19.551Z,7.61
2016-04-11T00:56:19.725Z,7.6
2016-04-11T00:57:33.650Z,7.6
2016-04-11T00:58:33.606Z,7.63
2016-04-11T00:59:33.623Z,7.58
2016-04-11T01:00:33.533Z,7.63
2016-04-11T01:01:19.583Z,7.67
2016-04-11T01:02:19.772Z,7.61
2016-04-11T01:03:19.556Z,7.63
2016-04-11T01:04:19.527Z,7.57
2016-04-11T01:05:19.514Z,7.68
2016-04-11T01:06:19.517Z,7.67
2016-04-11T01:07:19.536Z,7.58
2016-04-11T01:08:19.570Z,7.61
2016-04-11T01:09:19.730Z,7.63
2016-04-11T01:10:19.549Z,7.61
2016-04-11T01:11:19.521Z,7.61
2016-04-11T01:12:19.538Z,7.63
2016-04-11T01:13:19.541Z,7.67
2016-04-11T01:14:19.747Z,7.57
2016-04-11T01:15:19.999Z,7.58
2016-04-11T01:16:19.535Z,7.57
2016-04-11T01:17:19.537Z,7.61
2016-04-11T01:18:19.540Z,7.61
2016-04-11T01:19:19.542Z,7.63
2016-04-11T01:20:19.545Z,7.57
2016-04-11T01:21:19.532Z,7.57
2016-04-11T01:22:19.534Z,7.57
2016-04-11T01:23:19.537Z,7.6
2016-04-11T01:24:19.555Z,7.6
2016-04-11T01:25:19.558Z,7.6
2016-04-11T01:26:19.764Z,7.57
2016-04-11T01:27:19.579Z,7.53
2016-04-11T01:28:19.581Z,7.63
2016-04-11T01:29:19.787Z,7.6
2016-04-11T01:30:19.556Z,7.52
2016-04-11T01:32:19.577Z,7.57
2016-04-11T01:33:19.595Z,7.57
2016-04-11T01:34:19.551Z,7.6
2016-04-11T01:35:33.866Z,7.6
2016-04-11T01:36:19.572Z,7.6
2016-04-11T01:37:19.340Z,7.57
2016-04-11T01:38:19.577Z,7.57
2016-04-11T01:39:19.580Z,7.63
2016-04-11T01:40:19.566Z,7.57
2016-04-11T01:41:19.570Z,7.55
2016-04-11T01:42:19.791Z,7.6
2016-04-11T01:43:19.794Z,7.58
2016-04-11T01:44:19.562Z,7.58
2016-04-11T01:45:19.799Z,7.57
2016-04-11T01:46:19.771Z,7.58
2016-04-11T01:47:19.571Z,7.53
2016-04-11T01:48:19.573Z,7.6
2016-04-11T01:49:33.670Z,7.53
2016-04-11T01:50:33.672Z,7.5
2016-04-11T01:51:19.815Z,7.6
2016-04-11T01:52:19.584Z,7.53
2016-04-11T01:53:33.681Z,7.53
2016-04-11T01:54:19.137Z,7.57
2016-04-11T01:55:19.592Z,7.58
2016-04-11T01:56:20.001Z,7.5
2016-04-11T01:57:19.597Z,7.49
2016-04-11T01:58:19.584Z,7.49
2016-04-11T01:59:19.775Z,7.49
2016-04-11T02:00:19.574Z,7.52
2016-04-11T02:01:19.811Z,7.5
2016-04-11T02:02:19.579Z,7.52
2016-04-11T02:03:19.785Z,7.53
2016-04-11T02:04:19.585Z,7.53
2016-04-11T02:05:19.588Z,7.52
2016-04-11T02:06:19.605Z,7.52
2016-04-11T02:07:19.609Z,7.58
2016-04-11T02:08:19.596Z,7.49
2016-04-11T02:09:19.599Z,7.55
2016-04-11T02:10:19.632Z,7.57
2016-04-11T02:11:19.791Z,7.58
2016-04-11T02:12:19.685Z,7.48
2016-04-11T02:13:20.218Z,7.53
2016-04-11T02:14:19.580Z,7.53
2016-04-11T02:15:19.817Z,7.48
2016-04-11T02:16:20.414Z,7.48
2016-04-11T02:17:19.620Z,7.46
2016-04-11T02:18:19.623Z,7.49
2016-04-11T02:19:19.593Z,7.5
2016-04-11T02:20:19.800Z,7.53
2016-04-11T02:21:19.599Z,7.49
2016-04-11T02:22:19.633Z,7.34
2016-04-11T02:23:19.636Z,7.39
2016-04-11T02:24:19.592Z,7.34
2016-04-11T02:25:19.813Z,7.37
2016-04-11T02:26:19.331Z,7.35
2016-04-11T02:27:19.647Z,7.35
2016-04-11T02:28:19.602Z,7.34
2016-04-11T02:29:19.605Z,7.43
2016-04-11T02:30:19.623Z,7.37
2016-04-11T02:31:19.611Z,7.39
2016-04-11T02:32:19.863Z,7.37
2016-04-11T02:33:19.601Z,7.39
2016-04-11T02:34:19.634Z,7.35
2016-04-11T02:36:19.811Z,7.25
2016-04-11T02:37:19.627Z,7.35
2016-04-11T02:38:19.864Z,7.24
2016-04-11T02:39:19.664Z,7.21
2016-04-11T02:40:19.635Z,7.3
2016-04-11T02:41:19.481Z,7.24
2016-04-11T02:42:19.921Z,7.24
2016-04-11T02:43:33.721Z,7.15
2016-04-11T02:44:33.957Z,7.25
2016-04-11T02:45:19.616Z,7.25
2016-04-11T02:46:19.838Z,7.12
2016-04-11T02:47:19.622Z,7.21
2016-04-11T02:48:19.625Z,7.24
2016-04-11T02:49:19.831Z,7.21
2016-04-11T02:50:19.864Z,7.1
2016-04-11T02:51:33.726Z,7.02
2016-04-11T02:52:19.854Z,7.06
2016-04-11T02:53:19.623Z,7.12
2016-04-11T02:54:19.625Z,7.12
2016-04-11T02:55:19.643Z,7.05
2016-04-11T02:56:19.630Z,6.99
2016-04-11T02:57:19.931Z,6.91
2016-04-11T02:58:19.667Z,6.94
2016-04-11T02:59:19.639Z,6.97
2016-04-11T03:00:19.814Z,6.97
2016-04-11T03:01:19.864Z,6.92
2016-04-11T03:03:19.633Z,6.98
2016-04-11T03:04:19.636Z,6.95
2016-04-11T03:05:19.655Z,6.92
2016-04-11T03:06:19.642Z,6.88
2016-04-11T03:07:19.644Z,6.98
2016-04-11T03:08:18.913Z,6.85
2016-04-11T03:09:19.649Z,6.89
2016-04-11T03:10:19.652Z,6.85
2016-04-11T03:11:19.186Z,6.95
2016-04-11T03:12:19.955Z,6.95
2016-04-11T03:13:19.645Z,6.98
2016-04-11T03:14:33.742Z,6.92
2016-04-11T03:15:19.651Z,6.94
2016-04-11T03:16:19.654Z,6.95
2016-04-11T03:17:19.843Z,6.94
2016-04-11T03:18:19.643Z,6.99
2016-04-11T03:19:19.662Z,7.05
2016-04-11T03:20:19.648Z,6.98
2016-04-11T03:21:19.667Z,7.06
2016-04-11T03:22:19.654Z,6.98
2016-04-11T03:23:19.890Z,7.06
2016-04-11T03:24:19.862Z,7.06
2016-04-11T03:25:19.662Z,6.99
2016-04-11T03:26:19.648Z,7.03
2016-04-11T03:27:33.761Z,7.06
2016-04-11T03:28:19.654Z,7.13
2016-04-11T03:29:19.657Z,7.05
2016-04-11T03:30:33.753Z,7.16
2016-04-11T03:31:19.662Z,7.13
2016-04-11T03:32:19.664Z,7.12
2016-04-11T03:33:19.652Z,7.2
2016-04-11T03:34:19.655Z,7.21
2016-04-11T03:35:19.642Z,7.17
2016-04-11T03:36:19.660Z,7.13
2016-04-11T03:37:19.663Z,7.17
2016-04-11T03:39:19.872Z,7.09
2016-04-11T03:40:18.905Z,7.21
2016-04-11T03:41:19.658Z,7.25
2016-04-11T03:42:19.942Z,7.21
2016-04-11T03:43:19.648Z,7.23
2016-04-11T03:44:19.666Z,7.25
2016-04-11T03:45:19.700Z,7.24
2016-04-11T03:46:19.671Z,7.09
2016-04-11T03:47:19.658Z,7.16
2016-04-11T03:48:19.661Z,7.21
2016-04-11T03:49:19.680Z,7.16
2016-04-11T03:50:19.651Z,7.17
2016-04-11T03:51:19.669Z,7.1
2016-04-11T03:52:19.671Z,7.27
2016-04-11T03:53:19.659Z,7.28
2016-04-11T03:54:19.677Z,7.3
2016-04-11T03:55:19.664Z,7.28
2016-04-11T03:56:19.667Z,7.17
2016-04-11T03:57:19.685Z,7.15
2016-04-11T03:58:19.188Z,7.21
2016-04-11T03:59:19.659Z,7.21
2016-04-11T04:01:20.070Z,7.21
2016-04-11T04:02:33.778Z,7.15
2016-04-11T04:03:19.670Z,7.21
2016-04-11T04:04:19.673Z,7.27
2016-04-11T04:05:19.675Z,7.21
2016-04-11T04:06:25.944Z,7.21
2016-04-11T04:07:19.680Z,7.2
2016-04-11T04:08:19.684Z,7.21
2016-04-11T04:09:19.671Z,7.21
2016-04-11T04:10:19.877Z,7.21
2016-04-11T04:11:20.129Z,7.27
2016-04-11T04:12:19.726Z,7.17
2016-04-11T04:13:19.682Z,7.16
2016-04-11T04:14:19.685Z,7.05
2016-04-11T04:15:19.671Z,7.16
2016-04-11T04:16:19.690Z,7.21
2016-04-11T04:17:19.677Z,7.21
2016-04-11T04:18:19.883Z,7.13
2016-04-11T04:19:19.198Z,7.15
2016-04-11T04:20:19.685Z,7.23
2016-04-11T04:21:19.703Z,7.15
2016-04-11T04:22:19.690Z,7.16
2016-04-11T04:23:19.912Z,7.1
2016-04-11T04:24:19.729Z,7.09
2016-04-11T04:25:19.791Z,7.13
2016-04-11T04:26:20.009Z,7.12
2016-04-11T04:27:19.868Z,7.03
2016-04-11T04:28:19.915Z,7.15
2016-04-11T04:29:19.940Z,7.13
2016-04-11T04:30:19.927Z,7.12
2016-04-11T04:31:19.945Z,7.05
2016-04-11T04:32:19.980Z,7.03
2016-04-11T04:33:19.983Z,7.13
2016-04-11T04:34:20.008Z,7.12
2016-04-11T04:35:20.001Z,7.06
2016-04-11T04:36:19.994Z,7.06
2016-04-11T04:37:20.222Z,7.12
2016-04-11T04:38:20.027Z,7.06
2016-04-11T04:39:20.048Z,7.02
2016-04-11T04:40:20.005Z,7.1
2016-04-11T04:41:20.229Z,7.03
2016-04-11T04:42:20.031Z,7.07
2016-04-11T04:43:20.035Z,7.07
2016-04-11T04:44:20.039Z,7.15
2016-04-11T04:45:20.058Z,7.09
2016-04-11T04:46:20.029Z,7.16
2016-04-11T04:47:20.018Z,7.12
2016-04-11T04:48:20.037Z,7.15
2016-04-11T04:49:20.462Z,7.12
2016-04-11T04:50:20.043Z,7.17
2016-04-11T04:51:20.046Z,7.13
2016-04-11T04:52:20.081Z,7.24
2016-04-11T04:53:34.349Z,7.12
2016-04-11T04:54:19.587Z,7.24
2016-04-11T04:55:20.042Z,7.1
2016-04-11T04:56:20.045Z,7.23
2016-04-11T04:57:20.079Z,7.24
2016-04-11T04:58:20.051Z,7.25
2016-04-11T04:59:20.037Z,7.15
2016-04-11T05:00:20.056Z,7.21
2016-04-11T05:01:20.042Z,7.23
2016-04-11T05:02:20.062Z,7.24
2016-04-11T05:03:20.079Z,7.23
2016-04-11T05:04:20.051Z,7.27
2016-04-11T05:05:20.257Z,7.23
2016-04-11T05:06:20.056Z,7.21
2016-04-11T05:07:20.122Z,7.21
2016-04-11T05:08:20.061Z,7.23
2016-04-11T05:09:20.267Z,7.24
2016-04-11T05:10:20.286Z,7.2
2016-04-11T05:11:20.055Z,7.2
2016-04-11T05:12:20.057Z,7.21
2016-04-11T05:13:20.060Z,7.35
2016-04-11T05:14:20.077Z,7.25
2016-04-11T05:15:20.049Z,7.37
2016-04-11T05:16:20.068Z,7.24
2016-04-11T05:17:20.055Z,7.34
2016-04-11T05:18:20.057Z,7.34
2016-04-11T05:19:20.107Z,7.32
2016-04-11T05:20:20.063Z,7.32
2016-04-11T05:21:20.065Z,7.34
2016-04-11T05:22:34.146Z,7.37
2016-04-11T05:23:20.055Z,7.39
2016-04-11T05:24:20.073Z,7.37
2016-04-11T05:25:20.060Z,7.39
2016-04-11T05:26:20.095Z,7.34
2016-04-11T05:27:20.066Z,7.37
2016-04-11T05:28:20.101Z,7.3
2016-04-11T05:29:20.056Z,7.31
2016-04-11T05:30:20.074Z,7.37
2016-04-11T05:31:20.264Z,7.35
2016-04-11T05:32:20.079Z,7.45
2016-04-11T05:33:19.582Z,7.39
2016-04-11T05:34:20.084Z,7.46
2016-04-11T05:35:20.087Z,7.42
2016-04-11T05:36:20.106Z,7.4
2016-04-11T05:37:20.061Z,7.42
2016-04-11T05:38:20.080Z,7.37
2016-04-11T05:39:20.098Z,7.52
2016-04-11T05:40:20.288Z,7.5
2016-04-11T05:41:20.135Z,7.4
2016-04-11T05:42:20.092Z,7.52
2016-04-11T05:43:20.125Z,7.53
2016-04-11T05:44:20.097Z,7.5
2016-04-11T05:45:20.286Z,7.45
2016-04-11T05:46:20.070Z,7.55
2016-04-11T05:47:20.073Z,7.53
2016-04-11T05:48:20.075Z,7.53
2016-04-11T05:49:20.094Z,7.46
2016-04-11T05:50:34.190Z,7.5
2016-04-11T05:51:19.818Z,7.58
2016-04-11T05:52:20.133Z,7.5
2016-04-11T05:53:20.308Z,7.57
2016-04-11T05:54:20.123Z,7.64
2016-04-11T05:55:20.094Z,7.63
2016-04-11T05:56:20.097Z,7.69
2016-04-11T05:57:20.116Z,7.69
2016-04-11T05:58:20.102Z,7.69
2016-04-11T05:59:19.621Z,7.77
2016-04-11T06:00:20.108Z,7.75
2016-04-11T06:01:20.095Z,7.64
2016-04-11T06:02:20.098Z,7.82
2016-04-11T06:03:20.100Z,7.87
2016-04-11T06:04:20.103Z,7.74
2016-04-11T06:05:20.106Z,7.77
2016-04-11T06:06:20.140Z,7.74
2016-04-11T06:07:20.111Z,7.86
2016-04-11T06:08:20.505Z,7.9
2016-04-11T06:09:20.131Z,7.82
2016-04-11T06:10:20.119Z,7.85
2016-04-11T06:11:20.122Z,7.8
2016-04-11T06:12:20.140Z,7.85
2016-04-11T06:13:20.127Z,7.92
2016-04-11T06:14:20.130Z,7.98
2016-04-11T06:15:34.227Z,7.92
2016-04-11T06:16:20.151Z,7.86
2016-04-11T06:18:20.156Z,8
2016-04-11T06:19:20.174Z,8.05
2016-04-11T06:20:20.147Z,8
2016-04-11T06:21:20.149Z,8
2016-04-11T06:22:20.135Z,8.1
2016-04-11T06:23:20.170Z,8.05
2016-04-11T06:24:20.719Z,8.11
2016-04-11T06:25:20.300Z,8.15
2016-04-11T06:26:20.163Z,8.08
2016-04-11T06:27:20.134Z,8.08
2016-04-11T06:28:20.152Z,8.18
2016-04-11T06:29:20.593Z,8.19
2016-04-11T06:30:20.298Z,8.22
2016-04-11T06:31:20.145Z,8.2
2016-04-11T06:32:20.163Z,8.11
2016-04-11T06:33:20.151Z,8.12
2016-04-11T06:34:20.418Z,8.2
2016-04-11T06:35:20.264Z,8.23
2016-04-11T06:36:20.143Z,8.16
2016-04-11T06:37:19.723Z,8.29
2016-04-11T06:38:20.147Z,8.2
2016-04-11T06:39:20.370Z,8.29
2016-04-11T06:40:20.262Z,8.36
2016-04-11T06:41:20.375Z,8.34
2016-04-11T06:42:20.159Z,8.29
2016-04-11T06:43:20.364Z,8.38
2016-04-11T06:44:20.086Z,8.37
2016-04-11T06:45:20.183Z,8.45
2016-04-11T06:46:20.185Z,8.4
2016-04-11T06:47:20.203Z,8.48
2016-04-11T06:48:20.206Z,8.5
2016-04-11T06:49:20.490Z,8.5
2016-04-11T06:50:20.774Z,8.52
2016-04-11T06:51:20.963Z,8.61
2016-04-11T06:52:21.030Z,8.65
2016-04-11T06:53:20.266Z,8.66
2016-04-11T06:54:21.487Z,8.65
2016-04-11T06:55:21.053Z,8.79
2016-04-11T06:56:21.180Z,8.8
2016-04-11T06:57:20.324Z,8.76
2016-04-11T06:58:20.280Z,8.8
2016-04-11T06:59:20.266Z,8.83
2016-04-11T07:00:21.051Z,8.8
2016-04-11T07:01:20.225Z,8.79
2016-04-11T07:02:20.806Z,8.87
2016-04-11T07:03:34.809Z,8.92
2016-04-11T07:04:20.234Z,8.86
2016-04-11T07:05:20.612Z,8.95
2016-04-11T07:06:20.270Z,8.99
2016-04-11T07:07:20.226Z,8.99
2016-04-11T07:08:20.245Z,8.94
2016-04-11T07:09:20.247Z,8.96
2016-04-11T07:10:20.250Z,8.94
2016-04-11T07:11:19.783Z,8.99
2016-04-11T07:12:19.536Z,8.99
2016-04-11T07:13:20.679Z,9.11
2016-04-11T07:14:20.275Z,9.14
2016-04-11T07:15:20.263Z,9.15
2016-04-11T07:16:20.266Z,9.17
2016-04-11T07:17:20.503Z,9.24
2016-04-11T07:18:20.490Z,9.15
2016-04-11T07:19:20.477Z,9.15
2016-04-11T07:20:20.277Z,9.23
2016-04-11T07:21:20.482Z,9.28
2016-04-11T07:22:20.500Z,9.33
2016-04-11T07:23:20.285Z,9.38
2016-04-11T07:24:20.724Z,9.42
2016-04-11T07:25:20.307Z,9.39
2016-04-11T07:26:20.310Z,9.43
2016-04-11T07:27:20.719Z,9.48
2016-04-11T07:28:20.315Z,9.54
2016-04-11T07:29:20.365Z,9.53
2016-04-11T07:30:23.320Z,9.75
2016-04-11T07:31:34.417Z,9.71
2016-04-11T07:32:20.327Z,9.74
2016-04-11T07:33:23.532Z,9.84
2016-04-11T07:34:20.331Z,9.75
2016-04-11T07:35:20.568Z,9.81
2016-04-11T07:36:20.353Z,9.9
2016-04-11T07:37:20.573Z,9.84
2016-04-11T07:38:20.373Z,9.94
2016-04-11T07:39:20.361Z,9.99
2016-04-11T07:40:20.395Z,9.99
2016-04-11T07:41:19.897Z,9.97
2016-04-11T07:42:34.697Z,10.08
2016-04-11T07:43:20.606Z,10.08
2016-04-11T07:44:20.405Z,10.09
2016-04-11T07:45:20.377Z,10.12
2016-04-11T07:46:20.380Z,10.12
2016-04-11T07:47:20.397Z,10.15
2016-04-11T07:48:20.401Z,10.12
2016-04-11T07:49:20.606Z,10.08
2016-04-11T07:50:20.641Z,10.18
2016-04-11T07:51:20.408Z,10.02
2016-04-11T07:52:20.410Z,10.11
2016-04-11T07:53:20.446Z,10.15
2016-04-11T07:54:20.416Z,10.11
2016-04-11T07:55:20.638Z,10.14
2016-04-11T07:56:20.469Z,10.17
2016-04-11T07:57:20.487Z,10.23
2016-04-11T07:58:20.459Z,10.2
2016-04-11T07:59:20.446Z,10.32
2016-04-11T08:00:20.464Z,10.33
2016-04-11T08:01:20.467Z,10.4
2016-04-11T08:02:20.470Z,10.38
2016-04-11T08:03:20.660Z,10.51
2016-04-11T08:04:20.678Z,10.48
2016-04-11T08:05:19.993Z,10.53
2016-04-11T08:06:34.589Z,10.56
2016-04-11T08:07:20.498Z,10.6
2016-04-11T08:08:20.345Z,10.66
2016-04-11T08:09:20.508Z,10.76
2016-04-11T08:10:20.528Z,10.76
2016-04-11T08:11:20.514Z,10.85
2016-04-11T08:12:20.516Z,10.89
2016-04-11T08:13:20.519Z,10.84
2016-04-11T08:14:20.538Z,10.84
2016-04-11T08:15:20.541Z,10.88
2016-04-11T08:16:20.543Z,10.84
2016-04-11T08:17:20.546Z,10.88
2016-04-11T08:18:20.569Z,10.91
2016-04-11T08:19:20.587Z,11
2016-04-11T08:20:20.591Z,11.06
2016-04-11T08:21:34.671Z,11
2016-04-11T08:22:20.595Z,11.02
2016-04-11T08:23:20.832Z,11.1
2016-04-11T08:24:20.584Z,11.15
2016-04-11T08:25:20.119Z,11.02
2016-04-11T08:26:20.606Z,11.14
2016-04-11T08:27:20.609Z,11.18
2016-04-11T08:28:21.112Z,11.21
2016-04-11T08:29:20.473Z,11.28
2016-04-11T08:30:20.632Z,11.29
2016-04-11T08:31:20.839Z,11.37
2016-04-11T08:33:20.515Z,11.36
2016-04-11T08:34:20.675Z,11.32
2016-04-11T08:35:21.053Z,11.44
2016-04-11T08:36:20.930Z,11.43
2016-04-11T08:37:20.651Z,11.49
2016-04-11T08:38:20.686Z,11.61
2016-04-11T08:39:20.688Z,11.58
2016-04-11T08:40:20.675Z,11.55
2016-04-11T08:41:20.944Z,11.58
2016-04-11T08:42:20.696Z,11.61
2016-04-11T08:43:20.808Z,11.58
2016-04-11T08:44:20.702Z,11.55
2016-04-11T08:45:20.704Z,11.57
2016-04-11T08:46:20.957Z,11.6
2016-04-11T08:47:20.741Z,11.6
2016-04-11T08:48:20.727Z,11.72
2016-04-11T08:49:20.949Z,11.62
2016-04-11T08:50:20.968Z,11.61
2016-04-11T08:51:20.752Z,11.55
2016-04-11T08:52:20.785Z,11.61
2016-04-11T08:53:20.787Z,11.57
2016-04-11T08:54:20.776Z,11.51
2016-04-11T08:55:21.012Z,11.52
2016-04-11T08:56:20.781Z,11.51
2016-04-11T08:57:20.829Z,11.6
2016-04-11T08:58:20.864Z,11.46
2016-04-11T08:59:20.835Z,11.43
2016-04-11T09:00:20.822Z,11.46
2016-04-11T09:01:20.826Z,11.44
2016-04-11T09:02:20.812Z,11.47
2016-04-11T09:03:20.846Z,11.47
2016-04-11T09:04:20.848Z,11.43
2016-04-11T09:05:20.851Z,11.44
2016-04-11T09:06:20.854Z,11.33
2016-04-11T09:07:20.888Z,11.29
2016-04-11T09:08:21.078Z,11.46
2016-04-11T09:09:20.878Z,11.49
2016-04-11T09:10:20.897Z,11.35
2016-04-11T09:11:20.899Z,11.32
2016-04-11T09:12:20.902Z,11.36
2016-04-11T09:13:21.014Z,11.46
2016-04-11T09:14:20.907Z,11.46
2016-04-11T09:15:20.910Z,11.43
2016-04-11T09:16:20.975Z,11.43
2016-04-11T09:17:20.915Z,11.54
2016-04-11T09:18:20.918Z,11.52
2016-04-11T09:19:20.936Z,11.65
2016-04-11T09:20:20.938Z,11.69
2016-04-11T09:21:21.004Z,11.65
2016-04-11T09:22:20.944Z,11.69
2016-04-11T09:23:20.994Z,11.7
2016-04-11T09:24:20.965Z,11.82
2016-04-11T09:25:20.749Z,11.9
2016-04-11T09:26:20.987Z,11.94
2016-04-11T09:27:20.989Z,12.13
2016-04-11T09:28:20.679Z,12.23
2016-04-11T09:29:20.541Z,12.2
2016-04-11T09:30:21.216Z,12.28
2016-04-11T09:31:21.015Z,12.41
2016-04-11T09:32:21.034Z,12.46
2016-04-11T09:33:21.489Z,12.5
2016-04-11T09:34:21.070Z,12.54
2016-04-11T09:35:21.057Z,12.53
2016-04-11T09:36:21.060Z,12.74
2016-04-11T09:37:21.109Z,12.83
2016-04-11T09:38:21.097Z,12.86
2016-04-11T09:39:21.084Z,12.89
2016-04-11T09:40:21.102Z,12.85
2016-04-11T09:41:21.105Z,12.9
2016-04-11T09:42:20.997Z,12.95
2016-04-11T09:43:21.329Z,12.93
2016-04-11T09:44:21.160Z,12.97
2016-04-11T09:45:21.130Z,12.87
2016-04-11T09:46:21.133Z,12.96
2016-04-11T09:47:21.136Z,13.01
2016-04-11T09:48:21.155Z,12.97
2016-04-11T09:49:21.158Z,12.97
2016-04-11T09:50:21.160Z,12.95
2016-04-11T09:51:21.179Z,12.95
2016-04-11T09:52:21.182Z,12.97
2016-04-11T09:53:21.184Z,13
2016-04-11T09:54:21.202Z,13.1
2016-04-11T09:55:21.235Z,13.07
2016-04-11T09:56:21.489Z,13.1
2016-04-11T09:57:21.226Z,13.12
2016-04-11T09:58:21.447Z,13.19
2016-04-11T09:59:21.246Z,13.17
2016-04-11T10:00:20.984Z,13.19
2016-04-11T10:01:21.268Z,13.22
2016-04-11T10:02:21.504Z,13.22
2016-04-11T10:03:21.492Z,13.14
2016-04-11T10:04:35.384Z,13.14
2016-04-11T10:05:21.295Z,13.17
2016-04-11T10:06:21.500Z,13.01
2016-04-11T10:07:21.315Z,13
2016-04-11T10:08:21.317Z,13.03
2016-04-11T10:09:21.368Z,13.03
2016-04-11T10:10:21.323Z,12.95
2016-04-11T10:11:21.358Z,12.95
2016-04-11T10:12:21.360Z,12.97
2016-04-11T10:13:21.394Z,12.93
2016-04-11T10:14:35.474Z,12.9
2016-04-11T10:15:21.383Z,12.95
2016-04-11T10:16:21.386Z,12.95
2016-04-11T10:17:21.419Z,12.95
2016-04-11T10:18:35.501Z,13.01
2016-04-11T10:19:21.410Z,13.04
2016-04-11T10:20:21.428Z,12.96
2016-04-11T10:21:21.634Z,12.87
2016-04-11T10:22:21.637Z,12.9
2016-04-11T10:23:21.436Z,13
2016-04-11T10:24:21.438Z,12.97
2016-04-11T10:25:21.473Z,13.03
2016-04-11T10:26:21.476Z,13.01
2016-04-11T10:27:21.743Z,13.04
2016-04-11T10:28:21.482Z,12.93
2016-04-11T10:29:21.515Z,12.97
2016-04-11T10:30:21.518Z,13
2016-04-11T10:31:21.551Z,13.01
2016-04-11T10:32:21.523Z,13.07
2016-04-11T10:33:21.526Z,13.19
2016-04-11T10:34:21.529Z,13.15
2016-04-11T10:35:21.531Z,13.25
2016-04-11T10:36:21.550Z,13.19
2016-04-11T10:37:21.552Z,13.19
2016-04-11T10:38:21.555Z,13.19
2016-04-11T10:39:21.589Z,13.28
2016-04-11T10:40:22.029Z,13.29
2016-04-11T10:41:21.844Z,13.36
2016-04-11T10:42:21.597Z,13.33
2016-04-11T10:43:21.600Z,13.39
2016-04-11T10:44:21.617Z,13.41
2016-04-11T10:45:21.636Z,13.42
2016-04-11T10:46:21.842Z,13.39
2016-04-11T10:47:21.641Z,13.46
2016-04-11T10:48:21.660Z,13.3
2016-04-11T10:49:21.866Z,13.57
2016-04-11T10:50:21.665Z,13.44
2016-04-11T10:51:21.699Z,13.41
2016-04-11T10:52:21.686Z,13.38
2016-04-11T10:53:21.721Z,13.39
2016-04-11T10:54:21.738Z,13.48
2016-04-11T10:55:21.694Z,13.45
2016-04-11T10:56:21.712Z,13.45
2016-04-11T10:57:21.763Z,13.54
2016-04-11T10:58:21.734Z,13.46
2016-04-11T10:59:21.783Z,13.51
2016-04-11T11:00:21.739Z,13.48
2016-04-11T11:01:21.757Z,13.46
2016-04-11T11:02:21.775Z,13.46
2016-04-11T11:03:21.794Z,13.57
2016-04-11T11:04:21.782Z,13.44
2016-04-11T11:05:22.096Z,13.41
2016-04-11T11:06:21.817Z,13.51
2016-04-11T11:07:21.851Z,13.38
2016-04-11T11:08:21.822Z,13.51
2016-04-11T11:09:35.935Z,13.44
2016-04-11T11:10:22.079Z,13.36
2016-04-11T11:11:22.050Z,13.44
2016-04-11T11:12:21.849Z,13.42
2016-04-11T11:13:21.884Z,13.38
2016-04-11T11:14:21.870Z,13.46
2016-04-11T11:15:21.889Z,13.41
2016-04-11T11:16:21.891Z,13.42
2016-04-11T11:17:21.895Z,13.42
2016-04-11T11:18:22.116Z,13.42
2016-04-11T11:19:21.915Z,13.38
2016-04-11T11:20:21.918Z,13.29
2016-04-11T11:21:21.921Z,13.22
2016-04-11T11:22:22.141Z,13.19
2016-04-11T11:23:21.988Z,13.2
2016-04-11T11:24:22.179Z,13.14
2016-04-11T11:25:22.166Z,13.11
2016-04-11T11:26:21.965Z,13.07
2016-04-11T11:27:21.983Z,13.12
2016-04-11T11:28:21.986Z,13.01
2016-04-11T11:29:22.021Z,13
2016-04-11T11:30:22.195Z,13.01
2016-04-11T11:31:22.010Z,12.97
2016-04-11T11:32:22.043Z,12.92
2016-04-11T11:33:22.015Z,12.9
2016-04-11T11:34:22.033Z,12.89
2016-04-11T11:35:22.036Z,12.89
2016-04-11T11:36:22.273Z,12.75
2016-04-11T11:37:22.260Z,12.72
2016-04-11T11:38:22.076Z,12.72
2016-04-11T11:39:22.062Z,12.72
2016-04-11T11:40:22.097Z,12.72
2016-04-11T11:41:22.100Z,12.67
2016-04-11T11:42:22.086Z,12.74
2016-04-11T11:43:22.105Z,12.7
2016-04-11T11:44:22.123Z,12.68
2016-04-11T11:45:22.126Z,12.62
2016-04-11T11:46:22.113Z,12.67
2016-04-11T11:47:22.131Z,12.75
2016-04-11T11:48:22.150Z,12.74
2016-04-11T11:49:22.167Z,12.7
2016-04-11T11:50:22.139Z,12.71
2016-04-11T11:51:22.188Z,12.74
2016-04-11T11:52:21.708Z,12.74
2016-04-11T11:53:22.491Z,12.74
2016-04-11T11:54:22.385Z,12.79
2016-04-11T11:55:22.183Z,12.83
2016-04-11T11:56:22.421Z,12.78
2016-04-11T11:57:36.486Z,12.67
2016-04-11T11:58:22.207Z,12.74
2016-04-11T11:59:22.210Z,12.67
2016-04-11T12:00:22.212Z,12.77
2016-04-11T12:01:22.247Z,12.87
2016-04-11T12:02:22.234Z,12.74
2016-04-11T12:03:22.267Z,12.7
2016-04-11T12:04:22.271Z,12.72
2016-04-11T12:05:22.290Z,12.83
2016-04-11T12:06:22.292Z,12.78
2016-04-11T12:07:22.278Z,12.78
2016-04-11T12:08:22.298Z,12.71
2016-04-11T12:09:22.283Z,12.72
2016-04-11T12:10:22.303Z,12.75
2016-04-11T12:11:22.508Z,12.71
2016-04-11T12:12:22.308Z,12.74
2016-04-11T12:14:22.345Z,12.68
2016-04-11T12:15:22.331Z,12.79
2016-04-11T12:16:22.333Z,12.82
2016-04-11T12:17:22.540Z,12.85
2016-04-11T12:18:22.355Z,12.78
2016-04-11T12:19:22.389Z,12.87
2016-04-11T12:20:22.360Z,12.92
2016-04-11T12:21:22.597Z,12.89
2016-04-11T12:22:22.413Z,12.86
2016-04-11T12:23:22.384Z,12.77
2016-04-11T12:24:22.386Z,12.87
2016-04-11T12:25:22.421Z,12.87
2016-04-11T12:26:22.439Z,12.92
2016-04-11T12:27:22.441Z,12.87
2016-04-11T12:28:22.429Z,12.95
2016-04-11T12:29:22.431Z,12.85
2016-04-11T12:30:36.544Z,12.85
2016-04-11T12:31:22.484Z,12.87
2016-04-11T12:32:22.440Z,12.96
2016-04-11T12:33:22.457Z,12.87
2016-04-11T12:34:22.507Z,12.89
2016-04-11T12:35:22.479Z,12.92
2016-04-11T12:36:22.918Z,12.89
2016-04-11T12:37:22.484Z,12.95
2016-04-11T12:38:22.503Z,12.95
2016-04-11T12:39:22.724Z,13.01
2016-04-11T12:40:22.509Z,12.9
2016-04-11T12:41:22.526Z,12.9
2016-04-11T12:42:22.778Z,12.97
2016-04-11T12:43:22.562Z,12.95
2016-04-11T12:44:22.565Z,12.87
2016-04-11T12:45:22.553Z,12.97
2016-04-11T12:46:22.539Z,12.97
2016-04-11T12:47:22.667Z,12.93
2016-04-11T12:48:22.607Z,12.96
2016-04-11T12:49:22.814Z,13.05
2016-04-11T12:50:22.582Z,13.08
2016-04-11T12:51:22.631Z,13.14
2016-04-11T12:52:22.603Z,13.22
2016-04-11T12:53:22.605Z,13.19
2016-04-11T12:54:22.842Z,13.38
2016-04-11T12:55:22.626Z,13.33
2016-04-11T12:56:22.894Z,13.36
2016-04-11T12:57:22.632Z,13.41
2016-04-11T12:58:22.837Z,13.45
2016-04-11T12:59:22.716Z,13.48
2016-04-11T13:00:22.687Z,13.54
2016-04-11T13:01:22.893Z,13.54
2016-04-11T13:02:22.676Z,13.48
2016-04-11T13:03:22.695Z,13.57
2016-04-11T13:04:22.698Z,13.55
2016-04-11T13:05:23.168Z,13.6
2016-04-11T13:06:22.984Z,13.7
2016-04-11T13:07:22.768Z,13.7
2016-04-11T13:08:22.739Z,13.67
2016-04-11T13:09:22.804Z,13.78
2016-04-11T13:10:22.979Z,13.82
2016-04-11T13:11:22.763Z,13.81
2016-04-11T13:12:22.782Z,13.91
2016-04-11T13:13:22.784Z,13.87
2016-04-11T13:14:22.787Z,13.82
2016-04-11T13:15:22.789Z,13.6
2016-04-11T13:16:22.792Z,13.59
2016-04-11T13:17:22.811Z,13.54
2016-04-11T13:18:23.063Z,13.48
2016-04-11T13:19:22.816Z,13.52
2016-04-11T13:20:22.819Z,13.41